Sheshebee, Minnesota
Current Conditions -  °F | °C
As of 2:07 PM on Sunday 23 Nov 2014 (Local Time) from KHZX Reporting Station
Overcast Overcast  
Wind Chill: 37°   Ceiling: 5000
Heat Index: 37°   Visibility: 5mi
Dew Point: 36°   Wind: 3mph
Humidity: 93%   Direction: 280°W
Pressure: 29.39"   Gusts: NA
Location:  46.7232°N, 93.3159°W
Report Text: KHZX 232007Z AUTO 28003KT 5SM OVC050 03/02 A2939 RMK AO2
Loading
Personal Weather Stations






























Interactive Weather Map New forecast layout! Learn more

10-Day Weather Forecast

Advertisements
Track Severe Weather on mobile